createdAt,value
2017-03-24T00:00:47.725Z,21.52
2017-03-24T00:01:47.657Z,21.42
2017-03-24T00:02:47.602Z,21.33
2017-03-24T00:03:47.543Z,21.33
2017-03-24T00:04:47.484Z,21.52
2017-03-24T00:05:47.408Z,21.33
2017-03-24T00:06:47.347Z,21.33
2017-03-24T00:07:47.286Z,21.33
2017-03-24T00:08:47.224Z,21.23
2017-03-24T00:09:47.159Z,21.33
2017-03-24T00:10:47.100Z,21.33
2017-03-24T00:11:47.137Z,21.42
2017-03-24T00:12:46.982Z,21.42
2017-03-24T00:13:46.914Z,21.42
2017-03-24T00:14:46.851Z,21.42
2017-03-24T00:15:46.794Z,21.33
2017-03-24T00:16:46.724Z,21.42
2017-03-24T00:17:46.668Z,21.42
2017-03-24T00:18:46.599Z,21.42
2017-03-24T00:19:46.535Z,21.52
2017-03-24T00:20:46.728Z,21.42
2017-03-24T00:21:46.420Z,21.42
2017-03-24T00:22:46.039Z,21.42
2017-03-24T00:23:46.287Z,21.42
2017-03-24T00:24:46.226Z,21.42
2017-03-24T00:25:45.852Z,21.42
2017-03-24T00:26:46.098Z,21.42
2017-03-24T00:27:46.047Z,21.33
2017-03-24T00:28:45.977Z,21.42
2017-03-24T00:29:45.912Z,21.42
2017-03-24T00:30:45.851Z,21.42
2017-03-24T00:31:45.788Z,21.33
2017-03-24T00:32:45.420Z,21.42
2017-03-24T00:33:45.662Z,21.33
2017-03-24T00:34:45.601Z,21.33
2017-03-24T00:35:45.539Z,21.42
2017-03-24T00:36:45.479Z,21.42
2017-03-24T00:37:45.414Z,21.42
2017-03-24T00:38:45.045Z,21.33
2017-03-24T00:39:45.290Z,21.23
2017-03-24T00:40:45.224Z,21.33
2017-03-24T00:41:45.172Z,21.33
2017-03-24T00:42:45.104Z,21.23
2017-03-24T00:43:44.737Z,21.33
2017-03-24T00:44:44.987Z,21.42
2017-03-24T00:45:44.604Z,21.23
2017-03-24T00:46:45.236Z,21.23
2017-03-24T00:47:44.792Z,21.23
2017-03-24T00:48:44.730Z,21.33
2017-03-24T00:49:44.664Z,21.23
2017-03-24T00:50:44.704Z,21.33
2017-03-24T00:51:44.541Z,21.33
2017-03-24T00:52:44.479Z,21.33
2017-03-24T00:53:44.465Z,21.33
2017-03-24T00:54:44.355Z,21.23
2017-03-24T00:55:44.388Z,21.42
2017-03-24T00:56:44.228Z,21.33
2017-03-24T00:57:44.169Z,21.33
2017-03-24T00:58:44.103Z,21.23
2017-03-24T00:59:44.046Z,21.33
2017-03-24T01:01:13.213Z,21.33
2017-03-24T01:02:13.139Z,21.33
2017-03-24T01:03:13.079Z,21.42
2017-03-24T01:04:13.016Z,21.33
2017-03-24T01:05:12.952Z,21.42
2017-03-24T01:06:12.890Z,21.23
2017-03-24T01:07:12.829Z,21.52
2017-03-24T01:08:12.767Z,21.23
2017-03-24T01:09:12.705Z,21.52
2017-03-24T01:10:12.651Z,21.23
2017-03-24T01:11:12.582Z,21.33
2017-03-24T01:12:12.515Z,21.33
2017-03-24T01:13:12.154Z,21.13
2017-03-24T01:14:12.393Z,21.23
2017-03-24T01:15:12.428Z,21.33
2017-03-24T01:16:12.264Z,21.42
2017-03-24T01:17:12.203Z,21.33
2017-03-24T01:18:12.141Z,21.62
2017-03-24T01:19:12.083Z,21.42
2017-03-24T01:20:12.366Z,21.42
2017-03-24T01:21:11.953Z,21.33
2017-03-24T01:22:11.591Z,21.33
2017-03-24T01:23:11.828Z,21.42
2017-03-24T01:24:11.766Z,21.62
2017-03-24T01:25:11.402Z,21.23
2017-03-24T01:26:11.640Z,21.42
2017-03-24T01:27:11.580Z,21.62
2017-03-24T01:28:11.219Z,21.42
2017-03-24T01:29:11.454Z,21.42
2017-03-24T01:30:11.642Z,21.52
2017-03-24T01:31:11.327Z,21.42
2017-03-24T01:32:11.266Z,21.52
2017-03-24T01:33:11.208Z,21.62
2017-03-24T01:34:11.141Z,21.13
2017-03-24T01:35:11.080Z,21.42
2017-03-24T01:36:11.020Z,21.62
2017-03-24T01:37:10.959Z,21.52
2017-03-24T01:38:10.897Z,21.23
2017-03-24T01:39:10.829Z,21.52
2017-03-24T01:40:10.867Z,21.52
2017-03-24T01:41:10.701Z,21.52
2017-03-24T01:42:10.341Z,21.23
2017-03-24T01:43:10.584Z,21.52
2017-03-24T01:44:10.518Z,21.52
2017-03-24T01:45:10.452Z,21.42
2017-03-24T01:46:10.389Z,21.42
2017-03-24T01:47:10.335Z,21.42
2017-03-24T01:48:10.269Z,21.71
2017-03-24T01:49:10.203Z,21.23
2017-03-24T01:50:10.243Z,21.52
2017-03-24T01:51:09.778Z,21.52
2017-03-24T01:52:10.016Z,21.62
2017-03-24T01:53:09.956Z,21.42
2017-03-24T01:54:09.897Z,21.42
2017-03-24T01:55:09.829Z,21.52
2017-03-24T01:56:09.468Z,21.52
2017-03-24T01:57:09.709Z,21.71
2017-03-24T01:58:09.639Z,21.52
2017-03-24T01:59:09.580Z,21.52
2017-03-24T02:00:09.465Z,21.42
2017-03-24T02:01:09.452Z,21.71
2017-03-24T02:02:09.391Z,21.52
2017-03-24T02:03:09.327Z,21.52
2017-03-24T02:04:09.267Z,21.52
2017-03-24T02:05:09.205Z,21.33
2017-03-24T02:06:09.138Z,21.62
2017-03-24T02:07:09.078Z,21.71
2017-03-24T02:08:09.018Z,21.52
2017-03-24T02:09:08.954Z,21.52
2017-03-24T02:10:08.590Z,21.52
2017-03-24T02:11:08.827Z,21.33
2017-03-24T02:12:08.765Z,21.62
2017-03-24T02:13:08.403Z,21.62
2017-03-24T02:14:08.641Z,21.62
2017-03-24T02:15:08.977Z,21.62
2017-03-24T02:16:08.217Z,21.62
2017-03-24T02:17:08.452Z,21.62
2017-03-24T02:18:08.393Z,21.62
2017-03-24T02:19:08.329Z,21.52
2017-03-24T02:20:08.366Z,21.62
2017-03-24T02:21:08.206Z,21.62
2017-03-24T02:22:08.142Z,21.62
2017-03-24T02:23:08.078Z,21.62
2017-03-24T02:24:08.016Z,21.42
2017-03-24T02:25:08.052Z,21.42
2017-03-24T02:26:07.895Z,21.42
2017-03-24T02:27:07.830Z,21.62
2017-03-24T02:28:07.765Z,21.42
2017-03-24T02:29:07.702Z,21.62
2017-03-24T02:30:07.640Z,21.42
2017-03-24T02:31:07.577Z,21.52
2017-03-24T02:32:07.519Z,21.52
2017-03-24T02:33:07.452Z,21.42
2017-03-24T02:34:07.389Z,21.42
2017-03-24T02:35:07.328Z,21.42
2017-03-24T02:36:07.265Z,21.52
2017-03-24T02:37:07.204Z,21.62
2017-03-24T02:38:07.144Z,21.62
2017-03-24T02:39:07.079Z,21.62
2017-03-24T02:40:07.014Z,21.62
2017-03-24T02:41:06.954Z,21.62
2017-03-24T02:42:06.894Z,21.61
2017-03-24T02:43:06.828Z,21.52
2017-03-24T02:44:06.767Z,21.62
2017-03-24T02:45:06.704Z,21.52
2017-03-24T02:46:06.640Z,21.62
2017-03-24T02:47:06.278Z,21.52
2017-03-24T02:48:06.517Z,21.81
2017-03-24T02:49:06.455Z,21.52
2017-03-24T02:50:06.889Z,21.62
2017-03-24T02:51:06.332Z,21.62
2017-03-24T02:52:06.264Z,21.62
2017-03-24T02:53:06.204Z,21.62
2017-03-24T02:54:06.139Z,21.62
2017-03-24T02:55:05.778Z,21.62
2017-03-24T02:56:06.019Z,21.62
2017-03-24T02:57:05.653Z,21.62
2017-03-24T02:58:05.889Z,21.52
2017-03-24T02:59:05.828Z,21.33
2017-03-24T03:00:06.016Z,21.62
2017-03-24T03:01:05.702Z,21.71
2017-03-24T03:02:05.642Z,21.81
2017-03-24T03:03:05.579Z,21.81
2017-03-24T03:04:05.517Z,21.52
2017-03-24T03:05:05.604Z,21.62
2017-03-24T03:06:05.391Z,21.42
2017-03-24T03:07:05.329Z,21.71
2017-03-24T03:08:05.266Z,21.71
2017-03-24T03:09:05.202Z,21.81
2017-03-24T03:10:05.243Z,21.71
2017-03-24T03:11:05.081Z,21.71
2017-03-24T03:12:05.013Z,21.71
2017-03-24T03:13:04.954Z,21.81
2017-03-24T03:14:04.894Z,21.71
2017-03-24T03:15:04.829Z,21.81
2017-03-24T03:16:04.817Z,21.71
2017-03-24T03:17:04.703Z,21.81
2017-03-24T03:18:04.642Z,21.71
2017-03-24T03:19:04.581Z,21.81
2017-03-24T03:20:04.664Z,21.71
2017-03-24T03:21:04.453Z,21.81
2017-03-24T03:22:04.390Z,21.62
2017-03-24T03:23:04.327Z,21.71
2017-03-24T03:24:04.265Z,21.81
2017-03-24T03:25:04.205Z,21.52
2017-03-24T03:26:04.144Z,21.71
2017-03-24T03:27:04.078Z,21.71
2017-03-24T03:28:03.714Z,21.62
2017-03-24T03:29:03.652Z,21.71
2017-03-24T03:30:04.187Z,21.81
2017-03-24T03:31:03.829Z,21.81
2017-03-24T03:32:03.769Z,21.71
2017-03-24T03:33:03.705Z,21.62
2017-03-24T03:34:03.642Z,21.52
2017-03-24T03:35:03.580Z,21.71
2017-03-24T03:36:03.513Z,21.62
2017-03-24T03:37:03.455Z,21.71
2017-03-24T03:38:03.390Z,21.62
2017-03-24T03:39:03.328Z,21.71
2017-03-24T03:40:03.265Z,21.62
2017-03-24T03:41:03.201Z,21.62
2017-03-24T03:42:03.138Z,21.62
2017-03-24T03:43:03.077Z,21.71
2017-03-24T03:44:03.013Z,21.71
2017-03-24T03:45:02.952Z,21.71
2017-03-24T03:46:02.889Z,21.71
2017-03-24T03:47:02.827Z,21.71
2017-03-24T03:48:02.764Z,21.71
2017-03-24T03:49:02.701Z,21.71
2017-03-24T03:50:02.737Z,21.71
2017-03-24T03:51:02.575Z,21.62
2017-03-24T03:52:02.513Z,21.81
2017-03-24T03:53:02.464Z,21.71
2017-03-24T03:54:02.390Z,21.52
2017-03-24T03:55:02.477Z,21.71
2017-03-24T03:56:02.262Z,21.71
2017-03-24T03:57:02.203Z,21.62
2017-03-24T03:58:01.839Z,21.62
2017-03-24T03:59:02.078Z,21.52
2017-03-24T04:00:02.016Z,21.62
2017-03-24T04:01:01.950Z,21.62
2017-03-24T04:02:01.890Z,21.71
2017-03-24T04:03:01.826Z,21.52
2017-03-24T04:04:01.764Z,21.62
2017-03-24T04:05:01.702Z,21.62
2017-03-24T04:06:01.637Z,21.71
2017-03-24T04:07:01.577Z,21.62
2017-03-24T04:08:01.513Z,21.62
2017-03-24T04:09:01.454Z,21.62
2017-03-24T04:10:01.389Z,21.71
2017-03-24T04:11:01.327Z,21.71
2017-03-24T04:12:01.263Z,21.62
2017-03-24T04:13:01.203Z,21.62
2017-03-24T04:14:01.138Z,21.71
2017-03-24T04:15:01.077Z,21.71
2017-03-24T04:16:01.015Z,21.81
2017-03-24T04:17:00.951Z,21.71
2017-03-24T04:18:00.890Z,21.62
2017-03-24T04:19:00.829Z,21.81
2017-03-24T04:20:00.765Z,21.71
2017-03-24T04:21:00.800Z,21.71
2017-03-24T04:22:00.643Z,21.62
2017-03-24T04:23:00.578Z,21.52
2017-03-24T04:24:00.515Z,21.71
2017-03-24T04:25:00.453Z,21.81
2017-03-24T04:26:00.388Z,21.71
2017-03-24T04:27:00.332Z,21.71
2017-03-24T04:28:00.267Z,21.81
2017-03-24T04:29:00.202Z,21.91
2017-03-24T04:30:00.140Z,21.62
2017-03-24T04:31:00.074Z,21.52
2017-03-24T04:32:00.017Z,21.62
2017-03-24T04:32:59.951Z,21.81
2017-03-24T04:33:59.889Z,21.62
2017-03-24T04:34:59.827Z,21.52
2017-03-24T04:35:59.465Z,21.52
2017-03-24T04:36:59.698Z,21.62
2017-03-24T04:37:59.639Z,21.62
2017-03-24T04:38:59.575Z,21.62
2017-03-24T04:39:59.514Z,21.62
2017-03-24T04:40:59.452Z,21.62
2017-03-24T04:41:59.388Z,21.62
2017-03-24T04:42:59.326Z,21.62
2017-03-24T04:43:59.262Z,21.52
2017-03-24T04:44:59.202Z,21.81
2017-03-24T04:45:59.146Z,21.52
2017-03-24T04:46:59.078Z,21.91
2017-03-24T04:47:59.015Z,21.42
2017-03-24T04:48:58.951Z,21.81
2017-03-24T04:49:58.889Z,21.61
2017-03-24T04:50:58.825Z,21.81
2017-03-24T04:51:58.764Z,21.52
2017-03-24T04:52:58.716Z,21.52
2017-03-24T04:53:58.641Z,21.52
2017-03-24T04:54:58.575Z,21.42
2017-03-24T04:55:58.523Z,21.52
2017-03-24T04:56:58.465Z,21.71
2017-03-24T04:57:58.387Z,21.62
2017-03-24T04:58:58.329Z,21.52
2017-03-24T04:59:58.264Z,21.52
2017-03-24T05:00:58.199Z,21.42
2017-03-24T05:01:57.837Z,21.71
2017-03-24T05:02:58.076Z,21.52
2017-03-24T05:03:58.025Z,21.71
2017-03-24T05:04:57.948Z,21.62
2017-03-24T05:05:57.886Z,21.33
2017-03-24T05:06:57.832Z,20.94
2017-03-24T05:07:57.775Z,20.74
2017-03-24T05:08:57.701Z,20.75
2017-03-24T05:09:57.645Z,20.94
2017-03-24T05:10:57.826Z,20.94
2017-03-24T05:11:57.510Z,21.04
2017-03-24T05:12:57.451Z,21.12
2017-03-24T05:13:57.388Z,20.84
2017-03-24T05:14:57.323Z,20.84
2017-03-24T05:15:57.260Z,20.65
2017-03-24T05:16:57.198Z,20.36
2017-03-24T05:17:57.138Z,20.56
2017-03-24T05:18:57.095Z,20.36
2017-03-24T05:19:57.031Z,20.45
2017-03-24T05:20:56.949Z,20.36
2017-03-24T05:21:56.887Z,20.26
2017-03-24T05:22:56.825Z,20.65
2017-03-24T05:23:56.759Z,20.54
2017-03-24T05:24:56.699Z,20.56
2017-03-24T05:25:56.646Z,20.64
2017-03-24T05:26:56.573Z,20.26
2017-03-24T05:27:56.511Z,20.17
2017-03-24T05:28:56.451Z,20.35
2017-03-24T05:29:56.398Z,20.56
2017-03-24T05:30:56.472Z,20.46
2017-03-24T05:31:56.260Z,20.45
2017-03-24T05:32:56.200Z,20.26
2017-03-24T05:33:56.136Z,20.06
2017-03-24T05:34:56.072Z,20.35
2017-03-24T05:35:56.017Z,20.26
2017-03-24T05:36:55.954Z,20.84
2017-03-24T05:37:55.896Z,20.94
2017-03-24T05:38:55.824Z,20.36
2017-03-24T05:39:55.761Z,20.46
2017-03-24T05:40:55.697Z,20.36
2017-03-24T05:41:55.633Z,20.56
2017-03-24T05:42:55.574Z,20.56
2017-03-24T05:43:55.509Z,20.56
2017-03-24T05:44:55.448Z,20.56
2017-03-24T05:45:55.400Z,20.46
2017-03-24T05:46:55.323Z,20.46
2017-03-24T05:47:55.262Z,20.46
2017-03-24T05:48:55.204Z,20.46
2017-03-24T05:49:55.134Z,20.26
2017-03-24T05:50:55.076Z,20.65
2017-03-24T05:51:55.259Z,20.46
2017-03-24T05:52:54.946Z,20.65
2017-03-24T05:53:54.886Z,20.65
2017-03-24T05:54:54.826Z,20.65
2017-03-24T05:55:54.758Z,20.65
2017-03-24T05:56:54.698Z,20.75
2017-03-24T05:57:54.636Z,20.75
2017-03-24T05:58:54.585Z,20.84
2017-03-24T05:59:54.513Z,20.75
2017-03-24T06:00:54.448Z,20.36
2017-03-24T06:01:54.383Z,20.36
2017-03-24T06:02:54.331Z,20.26
2017-03-24T06:03:54.260Z,20.36
2017-03-24T06:04:54.198Z,20.26
2017-03-24T06:05:54.283Z,20.26
2017-03-24T06:06:54.072Z,20.36
2017-03-24T06:07:54.007Z,19.98
2017-03-24T06:08:53.958Z,20.36
2017-03-24T06:09:53.887Z,20.26
2017-03-24T06:10:53.822Z,20.26
2017-03-24T06:11:53.767Z,20.17
2017-03-24T06:12:53.697Z,20.26
2017-03-24T06:13:53.635Z,20.36
2017-03-24T06:14:53.625Z,20.26
2017-03-24T06:15:53.509Z,20.17
2017-03-24T06:16:53.456Z,20.26
2017-03-24T06:17:53.384Z,20.36
2017-03-24T06:18:53.333Z,20.36
2017-03-24T06:19:53.265Z,20.56
2017-03-24T06:20:53.196Z,20.07
2017-03-24T06:21:53.131Z,20.26
2017-03-24T06:22:53.072Z,20.17
2017-03-24T06:23:53.010Z,20.17
2017-03-24T06:24:52.944Z,20.26
2017-03-24T06:25:52.598Z,20.17
2017-03-24T06:26:52.918Z,20.17
2017-03-24T06:27:52.758Z,20.26
2017-03-24T06:28:52.697Z,20.07
2017-03-24T06:29:52.633Z,20.17
2017-03-24T06:30:52.270Z,19.98
2017-03-24T06:31:52.612Z,19.98
2017-03-24T06:32:52.460Z,19.88
2017-03-24T06:33:52.380Z,19.88
2017-03-24T06:34:52.328Z,19.88
2017-03-24T06:35:51.957Z,19.78
2017-03-24T06:36:52.194Z,19.88
2017-03-24T06:37:52.142Z,19.88
2017-03-24T06:38:52.072Z,19.78
2017-03-24T06:39:52.006Z,19.88
2017-03-24T06:40:52.109Z,19.78
2017-03-24T06:41:51.880Z,19.78
2017-03-24T06:42:51.820Z,19.88
2017-03-24T06:43:51.766Z,19.68
2017-03-24T06:44:51.695Z,19.68
2017-03-24T06:45:51.733Z,19.68
2017-03-24T06:46:51.267Z,19.68
2017-03-24T06:47:51.506Z,19.68
2017-03-24T06:48:51.444Z,19.68
2017-03-24T06:49:51.383Z,19.78
2017-03-24T06:50:51.316Z,19.68
2017-03-24T06:51:51.254Z,19.59
2017-03-24T06:52:51.194Z,19.59
2017-03-24T06:53:51.131Z,19.59
2017-03-24T06:54:51.068Z,19.59
2017-03-24T06:55:51.003Z,19.59
2017-03-24T06:56:50.943Z,19.68
2017-03-24T06:57:50.887Z,19.59
2017-03-24T06:58:50.818Z,19.59
2017-03-24T06:59:50.756Z,19.59
2017-03-24T07:00:50.697Z,19.98
2017-03-24T07:01:50.627Z,19.98
2017-03-24T07:02:50.567Z,19.78
2017-03-24T07:03:50.505Z,19.59
2017-03-24T07:04:50.442Z,19.78
2017-03-24T07:05:50.377Z,19.78
2017-03-24T07:06:50.316Z,19.78
2017-03-24T07:07:50.258Z,19.59
2017-03-24T07:08:50.194Z,19.59
2017-03-24T07:09:50.127Z,19.49
2017-03-24T07:10:49.916Z,19.68
2017-03-24T07:11:50.203Z,19.68
2017-03-24T07:12:49.641Z,19.68
2017-03-24T07:13:49.889Z,19.59
2017-03-24T07:14:49.815Z,19.3
2017-03-24T07:15:49.456Z,19.49
2017-03-24T07:16:49.692Z,19.4
2017-03-24T07:17:49.333Z,19.49
2017-03-24T07:18:49.578Z,19.49
2017-03-24T07:19:49.203Z,19.49
2017-03-24T07:20:49.444Z,19.49
2017-03-24T07:21:49.377Z,19.49
2017-03-24T07:22:49.317Z,19.4
2017-03-24T07:23:49.252Z,19.59
2017-03-24T07:24:48.898Z,19.49
2017-03-24T07:25:49.128Z,19.59
2017-03-24T07:26:49.066Z,19.49
2017-03-24T07:27:49.008Z,19.49
2017-03-24T07:28:48.944Z,19.49
2017-03-24T07:29:48.883Z,19.3
2017-03-24T07:30:48.915Z,19.3
2017-03-24T07:31:48.761Z,19.3
2017-03-24T07:32:48.942Z,19.4
2017-03-24T07:33:48.632Z,19.4
2017-03-24T07:34:48.565Z,19.4
2017-03-24T07:35:48.554Z,19.2
2017-03-24T07:36:48.441Z,19.3
2017-03-24T07:37:48.179Z,19.3
2017-03-24T07:38:48.318Z,19.3
2017-03-24T07:39:48.252Z,19.3
2017-03-24T07:40:48.192Z,19.49
2017-03-24T07:41:48.126Z,19.3
2017-03-24T07:42:48.067Z,19.4
2017-03-24T07:43:48.005Z,19.49
2017-03-24T07:44:48.144Z,19.49
2017-03-24T07:45:48.127Z,19.68
2017-03-24T07:46:47.514Z,19.59
2017-03-24T07:47:47.755Z,19.49
2017-03-24T07:48:47.694Z,19.59
2017-03-24T07:49:47.628Z,19.49
2017-03-24T07:50:47.664Z,19.4
2017-03-24T07:51:47.501Z,19.3
2017-03-24T07:52:47.442Z,19.2
2017-03-24T07:53:47.379Z,19.01
2017-03-24T07:54:47.314Z,19.2
2017-03-24T07:55:47.053Z,19.01
2017-03-24T07:56:47.188Z,18.91
2017-03-24T07:57:47.125Z,19.01
2017-03-24T07:58:47.064Z,18.91
2017-03-24T07:59:47.001Z,18.91
2017-03-24T08:00:47.040Z,19.1
2017-03-24T08:01:46.876Z,19.1
2017-03-24T08:02:46.813Z,19.3
2017-03-24T08:03:46.751Z,19.3
2017-03-24T08:04:46.689Z,18.82
2017-03-24T08:05:46.330Z,19.2
2017-03-24T08:06:46.263Z,18.91
2017-03-24T08:07:46.200Z,18.91
2017-03-24T08:08:46.439Z,18.82
2017-03-24T08:09:46.377Z,18.91
2017-03-24T08:10:46.313Z,19.01
2017-03-24T08:11:46.250Z,18.82
2017-03-24T08:12:46.194Z,18.91
2017-03-24T08:13:46.125Z,19.01
2017-03-24T08:14:46.064Z,19.1
2017-03-24T08:15:46.001Z,18.91
2017-03-24T08:16:45.939Z,19.1
2017-03-24T08:17:45.876Z,19.1
2017-03-24T08:18:45.816Z,19.1
2017-03-24T08:19:45.757Z,19.2
2017-03-24T08:20:45.940Z,19.1
2017-03-24T08:21:45.625Z,19.01
2017-03-24T08:22:45.565Z,19.1
2017-03-24T08:23:45.203Z,19.01
2017-03-24T08:24:45.439Z,18.82
2017-03-24T08:25:45.336Z,18.82
2017-03-24T08:26:45.322Z,18.91
2017-03-24T08:27:45.252Z,19.1
2017-03-24T08:28:45.188Z,19.1
2017-03-24T08:29:45.127Z,19.1
2017-03-24T08:30:45.217Z,19.01
2017-03-24T08:31:45.003Z,19.01
2017-03-24T08:32:44.940Z,18.62
2017-03-24T08:33:44.879Z,18.72
2017-03-24T08:34:44.814Z,19.1
2017-03-24T08:35:44.756Z,18.91
2017-03-24T08:36:44.691Z,18.72
2017-03-24T08:37:44.635Z,19.01
2017-03-24T08:38:44.564Z,18.82
2017-03-24T08:39:44.504Z,18.72
2017-03-24T08:40:44.791Z,18.62
2017-03-24T08:41:44.383Z,18.62
2017-03-24T08:42:44.315Z,18.82
2017-03-24T08:43:44.253Z,18.82
2017-03-24T08:44:44.190Z,18.72
2017-03-24T08:45:44.230Z,18.62
2017-03-24T08:46:44.066Z,18.62
2017-03-24T08:47:44.006Z,18.53
2017-03-24T08:48:43.940Z,18.43
2017-03-24T08:49:43.880Z,18.53
2017-03-24T08:50:43.968Z,18.53
2017-03-24T08:51:43.455Z,18.14
2017-03-24T08:52:43.695Z,18.24
2017-03-24T08:53:43.643Z,18.14
2017-03-24T08:54:43.570Z,18.53
2017-03-24T08:55:43.510Z,18.04
2017-03-24T08:56:43.146Z,18.04
2017-03-24T08:57:43.381Z,18.14
2017-03-24T08:58:43.019Z,18.14
2017-03-24T08:59:43.260Z,18.14
2017-03-24T09:00:43.192Z,18.24
2017-03-24T09:01:43.131Z,18.14
2017-03-24T09:02:42.790Z,18.14
2017-03-24T09:03:43.006Z,18.14
2017-03-24T09:04:43.294Z,18.04
2017-03-24T09:05:42.915Z,18.14
2017-03-24T09:06:42.821Z,18.14
2017-03-24T09:07:42.783Z,18.33
2017-03-24T09:08:42.694Z,18.33
2017-03-24T09:09:43.031Z,18.43
2017-03-24T09:10:42.593Z,18.62
2017-03-24T09:11:42.206Z,18.33
2017-03-24T09:12:42.145Z,18.72
2017-03-24T09:13:42.381Z,18.62
2017-03-24T09:14:42.569Z,18.62
2017-03-24T09:15:42.256Z,18.53
2017-03-24T09:16:42.196Z,18.04
2017-03-24T09:17:42.131Z,18.04
2017-03-24T09:18:41.771Z,18.04
2017-03-24T09:19:42.011Z,17.95
2017-03-24T09:20:42.047Z,18.04
2017-03-24T09:21:41.883Z,18.04
2017-03-24T09:22:41.820Z,18.04
2017-03-24T09:23:41.757Z,18.04
2017-03-24T09:24:41.695Z,18.04
2017-03-24T09:25:41.886Z,17.85
2017-03-24T09:26:41.592Z,18.04
2017-03-24T09:27:41.507Z,18.14
2017-03-24T09:28:41.458Z,17.85
2017-03-24T09:29:41.388Z,17.85
2017-03-24T09:30:41.322Z,17.76
2017-03-24T09:31:41.259Z,17.66
2017-03-24T09:32:41.199Z,17.56
2017-03-24T09:33:41.134Z,17.56
2017-03-24T09:34:41.073Z,17.66
2017-03-24T09:35:41.010Z,17.37
2017-03-24T09:36:40.946Z,17.37
2017-03-24T09:37:40.588Z,17.18
2017-03-24T09:38:40.879Z,17.37
2017-03-24T09:39:40.761Z,17.27
2017-03-24T09:40:40.948Z,17.37
2017-03-24T09:41:40.636Z,17.37
2017-03-24T09:42:40.571Z,17.66
2017-03-24T09:43:40.210Z,17.37
2017-03-24T09:44:40.450Z,17.37
2017-03-24T09:45:40.337Z,17.66
2017-03-24T09:46:40.328Z,17.47
2017-03-24T09:47:40.260Z,17.08
2017-03-24T09:48:39.898Z,17.47
2017-03-24T09:49:40.135Z,17.37
2017-03-24T09:50:40.180Z,16.99
2017-03-24T09:51:40.012Z,16.99
2017-03-24T09:52:39.993Z,16.99
2017-03-24T09:53:39.591Z,16.99
2017-03-24T09:54:39.828Z,17.56
2017-03-24T09:55:39.465Z,16.99
2017-03-24T09:56:39.702Z,17.18
2017-03-24T09:57:39.637Z,17.08
2017-03-24T09:58:39.574Z,17.18
2017-03-24T09:59:39.523Z,17.18
2017-03-24T10:00:39.576Z,17.37
2017-03-24T10:01:39.387Z,17.18
2017-03-24T10:02:39.026Z,17.27
2017-03-24T10:03:39.263Z,17.37
2017-03-24T10:04:39.200Z,16.99
2017-03-24T10:05:39.389Z,17.08
2017-03-24T10:06:39.080Z,17.08
2017-03-24T10:07:39.012Z,16.89
2017-03-24T10:08:38.952Z,16.89
2017-03-24T10:09:38.888Z,16.79
2017-03-24T10:10:39.076Z,16.99
2017-03-24T10:11:39.119Z,17.08
2017-03-24T10:12:38.752Z,16.89
2017-03-24T10:13:38.980Z,16.89
2017-03-24T10:14:38.579Z,16.89
2017-03-24T10:15:38.465Z,16.89
2017-03-24T10:16:38.453Z,16.5
2017-03-24T10:17:38.390Z,16.89
2017-03-24T10:18:38.328Z,16.89
2017-03-24T10:19:38.265Z,16.89
2017-03-24T10:20:38.303Z,16.69
2017-03-24T10:21:38.144Z,16.89
2017-03-24T10:22:37.781Z,16.89
2017-03-24T10:23:38.017Z,16.6
2017-03-24T10:24:37.954Z,16.5
2017-03-24T10:25:38.143Z,16.31
2017-03-24T10:26:37.530Z,16.11
2017-03-24T10:27:37.466Z,16.21
2017-03-24T10:28:37.706Z,16.11
2017-03-24T10:29:37.642Z,16.21
2017-03-24T10:30:37.832Z,16.21
2017-03-24T10:31:37.520Z,16.11
2017-03-24T10:32:37.157Z,16.5
2017-03-24T10:33:37.673Z,16.21
2017-03-24T10:34:37.331Z,16.31
2017-03-24T10:35:36.970Z,16.21
2017-03-24T10:36:37.207Z,16.41
2017-03-24T10:37:37.144Z,16.11
2017-03-24T10:38:36.787Z,16.21
2017-03-24T10:39:36.720Z,16.11
2017-03-24T10:40:37.057Z,16.11
2017-03-24T10:41:36.937Z,16.21
2017-03-24T10:42:36.539Z,16.31
2017-03-24T10:43:36.770Z,16.5
2017-03-24T10:44:36.408Z,16.5
2017-03-24T10:45:36.894Z,15.92
2017-03-24T10:46:36.618Z,16.02
2017-03-24T10:47:36.519Z,16.02
2017-03-24T10:48:36.462Z,16.02
2017-03-24T10:49:36.398Z,16.02
2017-03-24T10:50:36.492Z,16.11
2017-03-24T10:51:36.271Z,16.02
2017-03-24T10:52:36.211Z,16.11
2017-03-24T10:53:36.145Z,16.02
2017-03-24T10:54:36.086Z,16.02
2017-03-24T10:55:36.182Z,16.21
2017-03-24T10:56:35.980Z,16.02
2017-03-24T10:57:35.898Z,15.92
2017-03-24T10:58:35.836Z,16.31
2017-03-24T10:59:35.774Z,16.02
2017-03-24T11:00:35.864Z,16.02
2017-03-24T11:01:35.672Z,16.11
2017-03-24T11:02:35.845Z,16.11
2017-03-24T11:03:35.556Z,16.02
2017-03-24T11:04:35.465Z,16.02
2017-03-24T11:05:35.569Z,16.11
2017-03-24T11:06:35.347Z,15.92
2017-03-24T11:07:35.287Z,15.92
2017-03-24T11:08:35.221Z,16.02
2017-03-24T11:09:35.154Z,15.92
2017-03-24T11:10:35.340Z,15.92
2017-03-24T11:11:35.025Z,15.92
2017-03-24T11:12:34.962Z,15.92
2017-03-24T11:13:34.922Z,15.83
2017-03-24T11:14:34.847Z,16.02
2017-03-24T11:15:35.042Z,15.83
2017-03-24T11:16:34.737Z,16.02
2017-03-24T11:17:34.673Z,15.73
2017-03-24T11:18:34.596Z,15.63
2017-03-24T11:19:34.556Z,15.92
2017-03-24T11:20:34.661Z,15.83
2017-03-24T11:21:34.469Z,15.83
2017-03-24T11:22:34.437Z,15.92
2017-03-24T11:23:34.360Z,15.83
2017-03-24T11:24:34.217Z,15.63
2017-03-24T11:25:34.265Z,15.73
2017-03-24T11:26:34.102Z,15.63
2017-03-24T11:27:33.737Z,15.44
2017-03-24T11:28:33.965Z,15.53
2017-03-24T11:29:33.602Z,15.73
2017-03-24T11:30:34.091Z,15.73
2017-03-24T11:31:33.778Z,15.63
2017-03-24T11:32:33.756Z,15.53
2017-03-24T11:33:33.652Z,15.64
2017-03-24T11:34:33.591Z,15.44
2017-03-24T11:35:33.632Z,15.53
2017-03-24T11:36:33.465Z,15.73
2017-03-24T11:37:33.403Z,15.63
2017-03-24T11:38:33.342Z,15.53
2017-03-24T11:39:33.278Z,15.53
2017-03-24T11:40:33.518Z,15.73
2017-03-24T11:41:33.153Z,15.53
2017-03-24T11:42:33.094Z,15.53
2017-03-24T11:43:32.732Z,15.53
2017-03-24T11:44:32.666Z,15.44
2017-03-24T11:45:32.913Z,15.53
2017-03-24T11:46:32.841Z,15.53
2017-03-24T11:47:32.488Z,15.25
2017-03-24T11:48:32.717Z,15.15
2017-03-24T11:49:32.659Z,15.15
2017-03-24T11:50:32.298Z,15.34
2017-03-24T11:51:32.535Z,15.25
2017-03-24T11:52:32.473Z,15.25
2017-03-24T11:53:32.405Z,15.25
2017-03-24T11:54:32.344Z,15.15
2017-03-24T11:55:32.731Z,15.05
2017-03-24T11:56:32.220Z,14.86
2017-03-24T11:57:32.157Z,14.76
2017-03-24T11:58:32.095Z,14.76
2017-03-24T11:59:32.033Z,14.86
2017-03-24T12:00:31.971Z,15.05
2017-03-24T12:01:31.907Z,14.76
2017-03-24T12:02:31.845Z,15.15
2017-03-24T12:03:31.522Z,14.95
2017-03-24T12:04:31.723Z,14.95
2017-03-24T12:05:32.018Z,14.76
2017-03-24T12:06:31.297Z,14.76
2017-03-24T12:07:31.535Z,15.25
2017-03-24T12:08:31.173Z,15.34
2017-03-24T12:09:31.410Z,14.95
2017-03-24T12:10:31.448Z,15.34
2017-03-24T12:11:31.285Z,15.25
2017-03-24T12:12:31.222Z,14.95
2017-03-24T12:13:31.164Z,15.05
2017-03-24T12:14:31.100Z,14.95
2017-03-24T12:15:31.337Z,14.95
2017-03-24T12:16:30.975Z,15.15
2017-03-24T12:17:30.912Z,15.15
2017-03-24T12:18:30.850Z,14.95
2017-03-24T12:19:30.787Z,14.95
2017-03-24T12:20:31.175Z,14.95
2017-03-24T12:21:30.663Z,15.05
2017-03-24T12:22:30.600Z,15.05
2017-03-24T12:23:30.239Z,15.15
2017-03-24T12:24:30.477Z,14.95
2017-03-24T12:25:30.421Z,15.34
2017-03-24T12:26:30.351Z,14.95
2017-03-24T12:27:30.288Z,15.05
2017-03-24T12:28:30.227Z,15.05
2017-03-24T12:29:30.167Z,15.05
2017-03-24T12:30:30.402Z,15.15
2017-03-24T12:31:30.041Z,15.05
2017-03-24T12:32:29.982Z,15.15
2017-03-24T12:33:29.917Z,14.95
2017-03-24T12:34:29.851Z,15.25
2017-03-24T12:35:30.042Z,15.15
2017-03-24T12:36:29.729Z,14.95
2017-03-24T12:37:29.665Z,14.97
2017-03-24T12:38:29.305Z,14.95
2017-03-24T12:39:29.546Z,14.95
2017-03-24T12:40:29.730Z,15.15
2017-03-24T12:41:29.420Z,15.05
2017-03-24T12:42:29.355Z,14.97
2017-03-24T12:43:29.293Z,15.25
2017-03-24T12:44:29.229Z,15.15
2017-03-24T12:45:29.171Z,15.05
2017-03-24T12:46:29.105Z,15.06
2017-03-24T12:47:29.042Z,15.05
2017-03-24T12:48:28.980Z,14.67
2017-03-24T12:49:28.920Z,14.76
2017-03-24T12:50:29.007Z,15.05
2017-03-24T12:51:28.795Z,14.86
2017-03-24T12:52:28.733Z,14.57
2017-03-24T12:53:28.672Z,14.77
2017-03-24T12:54:28.607Z,14.67